createdAt,value
2022-07-26T00:00:10.317Z,3.65
2022-07-26T00:02:36.977Z,3.50
2022-07-26T00:05:04.332Z,3.33
2022-07-26T00:07:36.411Z,3.63
2022-07-26T00:10:05.482Z,3.53
2022-07-26T00:12:32.712Z,3.63
2022-07-26T00:14:59.663Z,3.47
2022-07-26T00:17:26.302Z,3.50
2022-07-26T00:19:52.917Z,3.63
2022-07-26T00:22:34.594Z,3.65
2022-07-26T00:25:04.168Z,3.40
2022-07-26T00:27:30.790Z,3.67
2022-07-26T00:29:57.493Z,3.92
2022-07-26T00:32:24.174Z,3.20
2022-07-26T00:34:52.045Z,3.22
2022-07-26T00:37:20.467Z,3.28
2022-07-26T00:39:47.485Z,3.30
2022-07-26T00:42:14.176Z,3.25
2022-07-26T00:44:42.763Z,3.55
2022-07-26T00:47:09.926Z,6.85
2022-07-26T00:49:37.277Z,5.32
2022-07-26T00:52:05.797Z,3.33
2022-07-26T00:54:32.508Z,3.83
2022-07-26T00:56:59.217Z,3.78
2022-07-26T00:59:25.870Z,3.90
2022-07-26T01:01:52.556Z,3.60
2022-07-26T01:04:19.305Z,3.30
2022-07-26T01:06:46.799Z,3.55
2022-07-26T01:09:14.319Z,3.50
2022-07-26T01:11:41.070Z,3.78
2022-07-26T01:14:07.970Z,3.35
2022-07-26T01:16:35.199Z,3.50
2022-07-26T01:19:01.891Z,4.07
2022-07-26T01:21:32.139Z,3.58
2022-07-26T01:23:59.282Z,4.10
2022-07-26T01:26:25.960Z,3.40
2022-07-26T01:28:52.699Z,3.35
2022-07-26T01:31:19.515Z,3.65
2022-07-26T01:33:47.243Z,4.20
2022-07-26T01:36:13.914Z,3.60
2022-07-26T01:38:41.462Z,3.08
2022-07-26T01:41:08.437Z,3.60
2022-07-26T01:43:36.479Z,3.25
2022-07-26T01:46:05.421Z,3.90
2022-07-26T01:48:32.178Z,3.30
2022-07-26T01:50:59.071Z,2.83
2022-07-26T01:53:25.783Z,3.05
2022-07-26T01:55:52.602Z,3.10
2022-07-26T01:58:19.326Z,3.17
2022-07-26T02:00:45.939Z,3.83
2022-07-26T02:03:12.636Z,3.13
2022-07-26T02:05:39.254Z,3.45
2022-07-26T02:08:06.513Z,3.45
2022-07-26T02:10:52.011Z,3.88
2022-07-26T02:13:18.982Z,3.20
2022-07-26T02:15:45.698Z,3.88
2022-07-26T02:18:12.353Z,3.35
2022-07-26T02:20:39.212Z,3.10
2022-07-26T02:23:06.494Z,3.55
2022-07-26T02:25:33.281Z,3.20
2022-07-26T02:28:01.254Z,3.55
2022-07-26T02:30:28.390Z,3.92
2022-07-26T02:32:55.483Z,3.40
2022-07-26T02:35:22.227Z,4.20
2022-07-26T02:37:48.883Z,3.60
2022-07-26T02:40:19.032Z,3.53
2022-07-26T02:42:46.073Z,3.60
2022-07-26T02:45:12.696Z,3.50
2022-07-26T02:47:50.628Z,3.03
2022-07-26T02:50:18.817Z,3.70
2022-07-26T02:52:48.138Z,3.20
2022-07-26T02:55:16.587Z,3.53
2022-07-26T02:57:46.578Z,3.75
2022-07-26T03:00:15.612Z,3.40
2022-07-26T03:02:42.345Z,3.28
2022-07-26T03:05:09.709Z,3.83
2022-07-26T03:07:36.689Z,3.25
2022-07-26T03:10:04.565Z,3.80
2022-07-26T03:12:31.157Z,3.80
2022-07-26T03:14:57.797Z,3.85
2022-07-26T03:17:24.473Z,3.90
2022-07-26T03:19:51.075Z,3.55
2022-07-26T03:22:17.956Z,3.40
2022-07-26T03:24:44.615Z,3.47
2022-07-26T03:27:11.151Z,3.45
2022-07-26T03:29:37.865Z,4.10
2022-07-26T03:32:04.708Z,4.20
2022-07-26T03:34:31.376Z,3.28
2022-07-26T03:36:58.013Z,3.70
2022-07-26T03:39:25.579Z,3.38
2022-07-26T03:41:52.244Z,3.70
2022-07-26T03:44:18.872Z,3.72
2022-07-26T03:46:45.616Z,3.53
2022-07-26T03:49:16.578Z,3.70
2022-07-26T03:51:43.731Z,3.55
2022-07-26T03:54:10.639Z,3.60
2022-07-26T03:56:37.606Z,3.67
2022-07-26T03:59:06.995Z,3.63
2022-07-26T04:01:35.044Z,3.75
2022-07-26T04:04:02.089Z,3.75
2022-07-26T04:06:29.191Z,3.50
2022-07-26T04:08:56.825Z,3.35
2022-07-26T04:11:26.508Z,3.70
2022-07-26T04:13:55.647Z,4.10
2022-07-26T04:16:22.624Z,3.25
2022-07-26T04:18:49.314Z,3.80
2022-07-26T04:21:15.982Z,4.20
2022-07-26T04:23:44.481Z,3.50
2022-07-26T04:26:16.002Z,3.63
2022-07-26T04:28:42.694Z,3.80
2022-07-26T04:31:10.064Z,4.10
2022-07-26T04:33:36.734Z,4.15
2022-07-26T04:36:03.807Z,3.53
2022-07-26T04:38:30.778Z,3.85
2022-07-26T04:40:58.106Z,3.67
2022-07-26T04:43:25.500Z,3.83
2022-07-26T04:45:52.313Z,3.80
2022-07-26T04:48:19.020Z,3.53
2022-07-26T04:50:46.189Z,4.35
2022-07-26T04:53:12.901Z,3.90
2022-07-26T04:55:40.520Z,3.80
2022-07-26T04:58:07.972Z,4.10
2022-07-26T05:00:56.435Z,4.97
2022-07-26T05:03:25.094Z,3.92
2022-07-26T05:05:52.190Z,3.97
2022-07-26T05:08:21.396Z,4.00
2022-07-26T05:10:54.587Z,3.83
2022-07-26T05:13:23.186Z,3.75
2022-07-26T05:15:56.218Z,4.05
2022-07-26T05:18:23.269Z,3.60
2022-07-26T05:20:51.006Z,3.65
2022-07-26T05:23:17.594Z,3.90
2022-07-26T05:25:45.100Z,3.92
2022-07-26T05:28:11.815Z,3.85
2022-07-26T05:30:38.510Z,3.45
2022-07-26T05:33:05.175Z,3.65
2022-07-26T05:35:31.727Z,3.28
2022-07-26T05:37:58.602Z,3.47
2022-07-26T05:40:25.363Z,3.88
2022-07-26T05:42:51.936Z,3.60
2022-07-26T05:45:18.600Z,3.78
2022-07-26T05:47:45.185Z,4.07
2022-07-26T05:50:11.751Z,3.85
2022-07-26T05:52:38.342Z,3.50
2022-07-26T05:55:05.455Z,4.07
2022-07-26T05:57:32.025Z,3.65
2022-07-26T05:59:58.700Z,3.92
2022-07-26T06:02:25.414Z,3.50
2022-07-26T06:04:52.170Z,4.20
2022-07-26T06:07:18.944Z,3.60
2022-07-26T06:09:45.572Z,3.90
2022-07-26T06:12:12.206Z,3.30
2022-07-26T06:14:38.783Z,3.47
2022-07-26T06:17:05.554Z,3.53
2022-07-26T06:19:32.946Z,3.55
2022-07-26T06:22:00.542Z,3.35
2022-07-26T06:24:27.313Z,4.05
2022-07-26T06:27:04.611Z,3.72
2022-07-26T06:29:32.242Z,3.67
2022-07-26T06:31:59.535Z,3.20
2022-07-26T06:34:26.175Z,3.47
2022-07-26T06:36:52.809Z,3.58
2022-07-26T06:39:19.494Z,4.00
2022-07-26T06:41:46.690Z,3.70
2022-07-26T06:44:13.285Z,3.58
2022-07-26T06:46:40.081Z,3.58
2022-07-26T06:49:07.174Z,3.90
2022-07-26T06:51:33.991Z,3.90
2022-07-26T06:54:00.961Z,3.78
2022-07-26T06:56:27.874Z,3.60
2022-07-26T06:58:55.346Z,3.58
2022-07-26T07:01:57.986Z,3.28
2022-07-26T07:04:09.657Z,3.25
2022-07-26T07:06:36.603Z,3.38
2022-07-26T07:09:03.254Z,3.40
2022-07-26T07:11:29.889Z,3.47
2022-07-26T07:13:56.554Z,3.28
2022-07-26T07:16:23.205Z,3.38
2022-07-26T07:18:51.370Z,3.30
2022-07-26T07:21:17.978Z,3.33
2022-07-26T07:23:44.616Z,3.65
2022-07-26T07:26:11.328Z,3.30
2022-07-26T07:28:40.770Z,3.50
2022-07-26T07:31:07.484Z,3.47
2022-07-26T07:33:36.735Z,3.47
2022-07-26T07:36:19.918Z,3.25
2022-07-26T07:38:46.935Z,2.83
2022-07-26T07:41:13.933Z,3.35
2022-07-26T07:43:40.505Z,3.30
2022-07-26T07:46:07.419Z,3.35
2022-07-26T07:48:34.438Z,3.40
2022-07-26T07:51:01.285Z,3.30
2022-07-26T07:53:28.330Z,3.13
2022-07-26T07:55:57.258Z,3.10
2022-07-26T07:58:24.311Z,3.47
2022-07-26T08:00:55.123Z,3.38
2022-07-26T08:03:21.890Z,3.78
2022-07-26T08:05:49.863Z,3.92
2022-07-26T08:08:18.571Z,3.20
2022-07-26T08:10:52.019Z,3.33
2022-07-26T08:13:21.364Z,2.88
2022-07-26T08:15:49.496Z,3.00
2022-07-26T08:18:16.234Z,3.70
2022-07-26T08:20:43.396Z,3.30
2022-07-26T08:23:10.632Z,3.47
2022-07-26T08:25:42.645Z,3.40
2022-07-26T08:28:37.790Z,3.80
2022-07-26T08:31:04.704Z,3.33
2022-07-26T08:33:31.399Z,3.70
2022-07-26T08:35:58.704Z,3.35
2022-07-26T08:38:25.675Z,3.40
2022-07-26T08:40:52.471Z,3.10
2022-07-26T08:43:19.051Z,3.58
2022-07-26T08:45:47.318Z,3.17
2022-07-26T08:48:17.705Z,3.08
2022-07-26T08:50:44.910Z,3.20
2022-07-26T08:53:13.141Z,3.67
2022-07-26T08:56:05.538Z,3.20
2022-07-26T08:58:26.720Z,3.72
2022-07-26T09:01:14.289Z,3.47
2022-07-26T09:03:43.244Z,3.30
2022-07-26T09:06:22.724Z,2.97
2022-07-26T09:09:09.583Z,3.97
2022-07-26T09:11:36.432Z,3.25
2022-07-26T09:14:05.320Z,3.17
2022-07-26T09:16:37.245Z,3.30
2022-07-26T09:19:22.800Z,3.35
2022-07-26T09:21:50.426Z,3.20
2022-07-26T09:24:47.513Z,3.60
2022-07-26T09:27:18.397Z,3.08
2022-07-26T09:29:53.010Z,2.90
2022-07-26T09:32:26.259Z,3.25
2022-07-26T09:35:24.113Z,3.40
2022-07-26T09:37:55.646Z,3.65
2022-07-26T09:40:22.570Z,3.10
2022-07-26T09:43:01.863Z,2.70
2022-07-26T09:45:30.771Z,3.22
2022-07-26T09:47:57.654Z,3.30
2022-07-26T09:50:27.869Z,3.15
2022-07-26T09:53:13.334Z,3.67
2022-07-26T09:55:46.113Z,3.15
2022-07-26T09:58:15.604Z,3.33
2022-07-26T10:00:45.347Z,3.40
2022-07-26T10:03:13.862Z,2.70
2022-07-26T10:05:41.032Z,2.60
2022-07-26T10:08:08.758Z,2.47
2022-07-26T10:10:42.212Z,2.83
2022-07-26T10:13:10.396Z,2.70
2022-07-26T10:15:38.295Z,3.05
2022-07-26T10:18:16.544Z,3.17
2022-07-26T10:20:51.435Z,2.90
2022-07-26T10:23:39.923Z,2.63
2022-07-26T10:26:10.083Z,3.10
2022-07-26T10:28:39.329Z,3.10
2022-07-26T10:31:21.189Z,3.00
2022-07-26T10:33:50.728Z,3.20
2022-07-26T10:36:33.488Z,3.60
2022-07-26T10:39:09.192Z,3.75
2022-07-26T10:41:37.851Z,3.10
2022-07-26T10:44:24.546Z,2.85
2022-07-26T10:47:18.879Z,2.90
2022-07-26T10:49:59.583Z,3.40
2022-07-26T10:52:30.080Z,3.15
2022-07-26T10:54:56.561Z,3.03
2022-07-26T10:57:27.997Z,2.40
2022-07-26T10:59:57.981Z,2.92
2022-07-26T11:02:33.950Z,2.80
2022-07-26T11:05:13.239Z,2.80
2022-07-26T11:07:56.671Z,2.83
2022-07-26T11:10:28.745Z,2.45
2022-07-26T11:13:12.982Z,2.70
2022-07-26T11:15:42.575Z,2.90
2022-07-26T11:18:10.247Z,2.42
2022-07-26T11:20:37.442Z,2.97
2022-07-26T11:23:19.206Z,2.78
2022-07-26T11:26:15.113Z,3.25
2022-07-26T11:28:53.531Z,3.28
2022-07-26T11:31:51.376Z,2.78
2022-07-26T11:34:19.347Z,2.80
2022-07-26T11:36:49.961Z,2.92
2022-07-26T11:39:25.236Z,3.20
2022-07-26T11:41:57.939Z,3.00
2022-07-26T11:44:24.858Z,3.00
2022-07-26T11:46:52.556Z,3.15
2022-07-26T11:49:41.364Z,2.70
2022-07-26T11:52:12.177Z,2.92
2022-07-26T11:54:46.745Z,2.85
2022-07-26T11:57:14.326Z,2.50
2022-07-26T11:59:43.893Z,2.80
2022-07-26T12:02:11.252Z,3.15
2022-07-26T12:04:43.668Z,3.10
2022-07-26T12:07:13.307Z,2.70
2022-07-26T12:09:47.245Z,2.50
2022-07-26T12:12:27.678Z,2.78
2022-07-26T12:15:03.820Z,2.90
2022-07-26T12:17:35.367Z,2.60
2022-07-26T12:20:14.714Z,3.20
2022-07-26T12:23:00.683Z,3.25
2022-07-26T12:25:29.162Z,2.90
2022-07-26T12:27:57.226Z,3.25
2022-07-26T12:30:25.691Z,3.53
2022-07-26T12:33:02.228Z,3.50
2022-07-26T12:35:33.743Z,2.63
2022-07-26T12:38:01.559Z,3.17
2022-07-26T12:40:30.847Z,2.95
2022-07-26T12:43:02.144Z,3.03
2022-07-26T12:45:34.799Z,2.50
2022-07-26T12:48:03.588Z,2.60
2022-07-26T12:50:32.954Z,2.63
2022-07-26T12:53:04.876Z,2.45
2022-07-26T12:55:32.145Z,4.57
2022-07-26T12:57:59.523Z,3.90
2022-07-26T13:00:26.877Z,3.15
2022-07-26T13:02:56.379Z,3.00
2022-07-26T13:05:23.692Z,2.88
2022-07-26T13:07:54.969Z,2.92
2022-07-26T13:10:33.045Z,2.40
2022-07-26T13:13:00.700Z,3.30
2022-07-26T13:15:36.494Z,4.10
2022-07-26T13:18:05.437Z,2.85
2022-07-26T13:20:32.703Z,3.17
2022-07-26T13:23:01.286Z,2.85
2022-07-26T13:25:37.077Z,2.58
2022-07-26T13:28:06.186Z,2.40
2022-07-26T13:30:32.847Z,2.63
2022-07-26T13:32:59.582Z,2.60
2022-07-26T13:35:26.501Z,3.22
2022-07-26T13:37:53.264Z,2.40
2022-07-26T13:40:20.114Z,2.80
2022-07-26T13:42:50.038Z,2.70
2022-07-26T13:45:16.864Z,2.70
2022-07-26T13:47:43.837Z,3.00
2022-07-26T13:50:10.672Z,2.67
2022-07-26T13:52:37.425Z,2.60
2022-07-26T13:55:04.542Z,2.40
2022-07-26T13:57:47.171Z,2.60
2022-07-26T14:00:20.140Z,2.85
2022-07-26T14:02:46.841Z,3.08
2022-07-26T14:05:13.542Z,2.60
2022-07-26T14:07:42.446Z,5.00
2022-07-26T14:10:09.536Z,5.47
2022-07-26T14:12:37.226Z,2.60
2022-07-26T14:15:09.147Z,2.70
2022-07-26T14:17:39.017Z,2.75
2022-07-26T14:20:06.536Z,3.63
2022-07-26T14:22:33.194Z,2.83
2022-07-26T14:24:59.925Z,3.00
2022-07-26T14:27:28.581Z,5.22
2022-07-26T14:29:56.299Z,2.65
2022-07-26T14:32:23.037Z,4.55
2022-07-26T14:34:51.191Z,2.70
2022-07-26T14:37:41.405Z,3.00
2022-07-26T14:40:06.392Z,2.92
2022-07-26T14:42:33.898Z,2.92
2022-07-26T14:45:00.779Z,2.30
2022-07-26T14:47:27.470Z,2.42
2022-07-26T14:49:54.166Z,2.58
2022-07-26T14:52:20.855Z,3.20
2022-07-26T14:54:47.577Z,2.80
2022-07-26T14:57:14.214Z,2.50
2022-07-26T14:59:40.796Z,2.80
2022-07-26T15:02:08.465Z,2.67
2022-07-26T15:04:35.087Z,2.80
2022-07-26T15:07:01.715Z,2.70
2022-07-26T15:09:31.126Z,2.53
2022-07-26T15:11:58.232Z,2.83
2022-07-26T15:14:24.842Z,2.45
2022-07-26T15:16:51.467Z,2.42
2022-07-26T15:19:22.169Z,2.60
2022-07-26T15:21:53.721Z,2.10
2022-07-26T15:24:20.576Z,2.20
2022-07-26T15:26:49.837Z,2.22
2022-07-26T15:29:16.449Z,2.40
2022-07-26T15:31:43.126Z,3.95
2022-07-26T15:34:11.125Z,4.68
2022-07-26T15:36:38.031Z,3.55
2022-07-26T15:39:16.645Z,2.53
2022-07-26T15:41:46.222Z,2.38
2022-07-26T15:44:13.261Z,3.78
2022-07-26T15:46:41.098Z,2.83
2022-07-26T15:49:08.082Z,2.50
2022-07-26T15:51:34.718Z,2.78
2022-07-26T15:54:03.190Z,2.70
2022-07-26T15:56:29.956Z,2.58
2022-07-26T15:58:56.581Z,2.97
2022-07-26T16:01:23.328Z,3.28
2022-07-26T16:03:50.569Z,2.88
2022-07-26T16:06:17.823Z,3.28
2022-07-26T16:09:05.916Z,2.83
2022-07-26T16:11:31.411Z,2.40
2022-07-26T16:14:01.112Z,2.50
2022-07-26T16:16:32.219Z,3.08
2022-07-26T16:18:59.175Z,2.78
2022-07-26T16:21:25.805Z,2.53
2022-07-26T16:23:52.386Z,2.72
2022-07-26T16:26:19.045Z,2.50
2022-07-26T16:28:46.100Z,3.22
2022-07-26T16:31:12.782Z,3.08
2022-07-26T16:33:46.026Z,2.90
2022-07-26T16:36:17.971Z,3.15
2022-07-26T16:38:44.549Z,2.50
2022-07-26T16:41:11.137Z,2.80
2022-07-26T16:43:37.718Z,2.55
2022-07-26T16:46:04.385Z,2.70
2022-07-26T16:48:31.110Z,2.50
2022-07-26T16:51:00.032Z,2.58
2022-07-26T16:53:26.724Z,3.10
2022-07-26T16:55:53.445Z,2.70
2022-07-26T16:58:20.165Z,3.60
2022-07-26T17:00:47.233Z,4.47
2022-07-26T17:03:17.537Z,5.07
2022-07-26T17:05:46.234Z,3.55
2022-07-26T17:08:13.460Z,3.00
2022-07-26T17:10:40.036Z,2.78
2022-07-26T17:13:07.014Z,2.72
2022-07-26T17:15:33.632Z,2.70
2022-07-26T17:18:00.398Z,2.83
2022-07-26T17:20:27.436Z,2.45
2022-07-26T17:22:54.365Z,2.70
2022-07-26T17:25:21.032Z,2.75
2022-07-26T17:27:47.632Z,2.30
2022-07-26T17:30:14.474Z,2.70
2022-07-26T17:32:41.138Z,2.50
2022-07-26T17:35:09.200Z,2.72
2022-07-26T17:37:35.967Z,2.60
2022-07-26T17:40:07.959Z,2.55
2022-07-26T17:42:35.757Z,3.10
2022-07-26T17:45:02.569Z,2.70
2022-07-26T17:47:30.544Z,2.78
2022-07-26T17:50:34.754Z,2.88
2022-07-26T17:52:55.025Z,2.85
2022-07-26T17:55:22.108Z,2.70
2022-07-26T17:57:50.158Z,3.15
2022-07-26T18:00:19.757Z,3.08
2022-07-26T18:02:47.433Z,2.55
2022-07-26T18:05:14.667Z,2.90
2022-07-26T18:07:41.483Z,3.15
2022-07-26T18:10:08.773Z,3.13
2022-07-26T18:12:35.414Z,2.75
2022-07-26T18:15:02.060Z,2.92
2022-07-26T18:17:28.817Z,3.45
2022-07-26T18:19:55.465Z,3.15
2022-07-26T18:22:23.280Z,2.75
2022-07-26T18:24:49.915Z,3.00
2022-07-26T18:27:16.520Z,5.38
2022-07-26T18:29:43.156Z,6.20
2022-07-26T18:32:09.756Z,2.65
2022-07-26T18:34:36.308Z,3.17
2022-07-26T18:37:02.918Z,2.90
2022-07-26T18:39:32.603Z,2.90
2022-07-26T18:41:59.449Z,2.70
2022-07-26T18:44:26.018Z,2.70
2022-07-26T18:46:52.805Z,3.22
2022-07-26T18:49:21.087Z,2.83
2022-07-26T18:51:49.067Z,3.05
2022-07-26T18:54:17.196Z,2.50
2022-07-26T18:56:43.934Z,2.80
2022-07-26T18:59:10.800Z,2.95
2022-07-26T19:02:07.621Z,2.60
2022-07-26T19:04:34.441Z,3.05
2022-07-26T19:07:01.020Z,2.72
2022-07-26T19:09:27.640Z,2.90
2022-07-26T19:11:54.321Z,2.53
2022-07-26T19:14:20.881Z,2.50
2022-07-26T19:16:47.532Z,2.90
2022-07-26T19:19:14.483Z,2.70
2022-07-26T19:21:45.303Z,2.70
2022-07-26T19:24:12.027Z,2.70
2022-07-26T19:26:38.591Z,2.90
2022-07-26T19:29:05.294Z,2.80
2022-07-26T19:31:32.087Z,3.28
2022-07-26T19:33:58.699Z,2.88
2022-07-26T19:36:25.956Z,2.90
2022-07-26T19:38:53.845Z,3.03
2022-07-26T19:41:20.468Z,3.10
2022-07-26T19:43:47.187Z,2.88
2022-07-26T19:46:13.920Z,2.78
2022-07-26T19:48:43.050Z,2.60
2022-07-26T19:51:09.705Z,2.60
2022-07-26T19:53:36.281Z,2.55
2022-07-26T19:56:03.646Z,2.40
2022-07-26T19:58:30.737Z,2.42
2022-07-26T20:00:57.369Z,2.45
2022-07-26T20:03:23.931Z,2.70
2022-07-26T20:05:50.518Z,2.60
2022-07-26T20:08:17.041Z,2.72
2022-07-26T20:10:43.648Z,2.88
2022-07-26T20:13:10.298Z,2.40
2022-07-26T20:15:36.915Z,2.50
2022-07-26T20:18:04.651Z,2.42
2022-07-26T20:20:31.412Z,2.50
2022-07-26T20:22:57.970Z,3.13
2022-07-26T20:25:25.255Z,2.95
2022-07-26T20:27:54.345Z,2.60
2022-07-26T20:30:21.694Z,2.75
2022-07-26T20:32:48.281Z,2.63
2022-07-26T20:35:14.881Z,2.60
2022-07-26T20:37:43.090Z,2.70
2022-07-26T20:40:11.961Z,2.65
2022-07-26T20:42:41.890Z,2.40
2022-07-26T20:45:13.074Z,2.30
2022-07-26T20:47:40.566Z,2.50
2022-07-26T20:50:09.162Z,2.90
2022-07-26T20:52:36.261Z,2.83
2022-07-26T20:55:03.305Z,2.50
2022-07-26T20:57:29.922Z,2.40
2022-07-26T20:59:56.527Z,2.65
2022-07-26T21:02:23.222Z,2.40
2022-07-26T21:04:50.550Z,2.30
2022-07-26T21:07:17.329Z,2.30
2022-07-26T21:09:43.975Z,2.70
2022-07-26T21:12:10.575Z,2.38
2022-07-26T21:14:37.159Z,2.22
2022-07-26T21:17:07.921Z,2.30
2022-07-26T21:19:37.673Z,3.10
2022-07-26T21:22:04.416Z,2.80
2022-07-26T21:24:31.053Z,2.92
2022-07-26T21:26:57.678Z,2.65
2022-07-26T21:29:24.244Z,2.80
2022-07-26T21:31:52.950Z,3.65
2022-07-26T21:34:20.004Z,2.42
2022-07-26T21:36:46.642Z,2.55
2022-07-26T21:39:13.757Z,3.20
2022-07-26T21:41:40.631Z,2.60
2022-07-26T21:44:10.668Z,2.70
2022-07-26T21:46:37.519Z,2.78
2022-07-26T21:49:05.024Z,2.80
2022-07-26T21:51:31.697Z,2.85
2022-07-26T21:53:58.319Z,2.72
2022-07-26T21:56:28.123Z,3.00
2022-07-26T21:58:55.476Z,3.30
2022-07-26T22:01:22.163Z,2.92
2022-07-26T22:03:48.750Z,3.00
2022-07-26T22:06:16.844Z,2.92
2022-07-26T22:08:43.532Z,3.00
2022-07-26T22:11:10.718Z,3.28
2022-07-26T22:13:38.014Z,2.78
2022-07-26T22:16:06.276Z,3.30
2022-07-26T22:18:32.904Z,3.00
2022-07-26T22:21:00.985Z,3.00
2022-07-26T22:23:30.580Z,2.80
2022-07-26T22:26:04.413Z,2.50
2022-07-26T22:28:32.727Z,2.80
2022-07-26T22:30:59.860Z,3.78
2022-07-26T22:33:26.600Z,3.08
2022-07-26T22:35:53.444Z,2.60
2022-07-26T22:38:20.039Z,2.50
2022-07-26T22:40:46.729Z,3.20
2022-07-26T22:43:14.745Z,3.13
2022-07-26T22:45:41.983Z,2.60
2022-07-26T22:48:09.633Z,2.70
2022-07-26T22:50:36.538Z,2.92
2022-07-26T22:53:03.616Z,3.00
2022-07-26T22:55:31.105Z,2.88
2022-07-26T22:57:57.900Z,2.78
2022-07-26T23:00:25.084Z,2.67
2022-07-26T23:02:52.137Z,2.85
2022-07-26T23:05:19.575Z,3.17
2022-07-26T23:07:47.807Z,3.03
2022-07-26T23:10:14.741Z,3.58
2022-07-26T23:12:41.315Z,3.97
2022-07-26T23:15:10.012Z,1.63
2022-07-26T23:17:37.530Z,1.27
2022-07-26T23:20:09.137Z,1.10
2022-07-26T23:22:35.816Z,2.97
2022-07-26T23:25:02.379Z,1.17
2022-07-26T23:27:28.992Z,2.05
2022-07-26T23:29:55.628Z,3.53
2022-07-26T23:32:22.268Z,0.95
2022-07-26T23:34:48.905Z,1.20
2022-07-26T23:37:15.472Z,1.13
2022-07-26T23:39:42.346Z,1.10
2022-07-26T23:42:08.932Z,1.00
2022-07-26T23:44:35.573Z,1.20
2022-07-26T23:47:02.270Z,1.10
2022-07-26T23:49:29.090Z,0.80
2022-07-26T23:51:55.681Z,0.95
2022-07-26T23:54:22.280Z,0.90
2022-07-26T23:56:48.908Z,0.90
2022-07-26T23:59:15.831Z,1.00
